M I D A S
Marine Information and Data Acquisition System
Tripno 1137 of the Zeeleeuw from 2006-07-18 07:02:39 to 2006-07-18 11:51:59
Back to CruiseResearch ActivitiesStationsMapUnderway DataData graphs

EquipmentUnitsComment
TimeDGPSUTC
LatitudeDGPSDM.mWGS84
LongitudeDGPSDM.mWGS84
TemperatureSBE03/SBE38deg celciusITS90
ConductivitySBE21S/mITS90
SalinitySBE21 Practical Salinity Units
ChlorophylAChelsea fluorimeterg/lCalibrated in Aceton
Missing or incorrect values are displayed as -999
Sea surface data collected by the RV Zeeleeuw from 2006-07-18 07:03:06 to 2006-07-18 12:03:19
Time Latitude Longitude Temperature Conductivity Salinity ChlorophylA
2006-07-18 07:04:13 51°13.611 2°56.03 23.7984 0.009236 0.047452 10.477691
2006-07-18 07:05:13 51°13.644 2°55.914 23.8031 0.009236 0.047451 10.477691
2006-07-18 07:06:13 51°13.683 2°55.793 23.8308 0.009236 0.04745 10.477691
2006-07-18 07:07:12 51°13.701 2°55.716 23.8247 0.009236 0.047449 10.443982
2006-07-18 07:08:13 51°13.708 2°55.709 23.842 0.009236 0.047448 10.443982
2006-07-18 07:09:13 51°13.748 2°55.707 23.8414 0.009236 0.047446 10.477691
2006-07-18 07:10:13 51°13.832 2°55.637 23.7831 0.009236 0.047445 10.443982
2006-07-18 07:11:13 51°13.938 2°55.555 23.7832 0.009236 0.047445 10.477691
2006-07-18 07:12:13 51°14.046 2°55.476 23.858 0.009236 0.047445 10.477691
2006-07-18 07:13:13 51°14.142 2°55.405 23.9074 0.009236 0.047445 10.477691
2006-07-18 07:14:12 51°14.237 2°55.295 23.895 0.009236 0.047446 10.443982
2006-07-18 07:15:12 51°14.34 2°55.111 23.9083 0.009236 0.047448 10.443982
2006-07-18 07:16:13 51°14.442 2°54.905 23.8476 0.009236 0.047449 10.477691
2006-07-18 07:17:12 51°14.53 2°54.685 23.9221 0.009236 0.047452 10.443982
2006-07-18 07:18:13 51°14.618 2°54.415 23.8146 0.009236 0.047456 10.443982
2006-07-18 07:19:13 51°14.724 2°54.15 23.8521 0.009236 0.047461 10.443982
2006-07-18 07:20:13 51°14.829 2°53.879 23.9296 0.009236 0.047467 10.443982
2006-07-18 07:21:13 51°14.91 2°53.59 23.8882 0.009236 0.047473 10.443982
2006-07-18 07:22:12 51°15.009 2°53.317 23.943 0.009236 0.047481 10.410272
2006-07-18 07:23:13 51°15.102 2°53.026 23.9336 0.009236 0.047488 10.443982
2006-07-18 07:24:13 51°15.192 2°52.738 23.9498 0.009236 0.047495 10.443982
2006-07-18 07:25:13 51°15.283 2°52.452 23.9669 0.009236 0.047502 10.443982
2006-07-18 07:26:13 51°15.371 2°52.167 23.9898 0.009236 0.047509 10.443982
2006-07-18 07:27:12 51°15.452 2°51.88 23.9995 0.009236 0.047517 10.443982
2006-07-18 07:28:13 51°15.522 2°51.58 23.9504 0.009236 0.047523 10.443982
2006-07-18 07:29:13 51°15.603 2°51.289 24.007 0.009236 0.04753 10.443982
2006-07-18 07:30:12 51°15.686 2°51 24.029 0.009236 0.047536 10.410272
2006-07-18 07:31:13 51°15.771 2°50.702 24.0462 0.009236 0.047542 10.443982
2006-07-18 07:32:13 51°15.855 2°50.41 24.0512 0.009236 0.047549 10.443982
2006-07-18 07:33:13 51°15.936 2°50.119 24.0417 0.009236 0.047557 10.443982
2006-07-18 07:34:12 51°16.011 2°49.827 24.0735 0.009236 0.047564 10.443982
2006-07-18 07:35:13 51°16.093 2°49.526 24.1031 0.009236 0.047572 10.443982
2006-07-18 07:36:12 51°16.172 2°49.235 24.0979 0.009236 0.047578 10.410272
2006-07-18 07:37:12 51°16.241 2°48.938 24.0952 0.009236 0.047584 10.410272
2006-07-18 07:38:12 51°16.317 2°48.644 24.143 0.009236 0.04759 10.443982
2006-07-18 07:39:13 51°16.404 2°48.353 24.1503 0.009236 0.047597 10.443982
2006-07-18 07:40:13 51°16.49 2°48.068 24.1555 0.009236 0.047603 10.410272
2006-07-18 07:41:13 51°16.576 2°47.782 24.1789 0.009236 0.047609 10.443982
2006-07-18 07:42:13 51°16.666 2°47.494 24.2013 0.009236 0.047616 10.443982
2006-07-18 07:43:13 51°16.736 2°47.19 24.2075 0.009236 0.047622 10.410272
2006-07-18 07:44:13 51°16.804 2°46.886 24.1922 0.009236 0.04763 10.443982
2006-07-18 07:45:13 51°16.875 2°46.583 24.2581 0.009236 0.047636 10.410272
2006-07-18 07:46:13 51°16.948 2°46.28 24.2401 0.009236 0.047642 10.443982
2006-07-18 07:47:13 51°17.022 2°45.972 24.2579 0.009236 0.047649 10.410272
2006-07-18 07:48:13 51°17.097 2°45.665 24.2492 0.009236 0.047656 10.376563
2006-07-18 07:49:12 51°17.171 2°45.363 24.2983 0.009236 0.047661 10.410272
2006-07-18 07:50:13 51°17.25 2°45.054 24.3141 0.009236 0.047667 10.443982
2006-07-18 07:51:13 51°17.326 2°44.749 24.317 0.009236 0.047673 10.443982
2006-07-18 07:52:13 51°17.407 2°44.446 24.3351 0.009236 0.047679 10.410272
2006-07-18 07:53:13 51°17.491 2°44.144 24.3516 0.009236 0.047686 10.410272
2006-07-18 07:54:13 51°17.575 2°43.843 24.3632 0.009236 0.047692 10.410272
2006-07-18 07:55:12 51°17.663 2°43.551 24.3965 0.009236 0.047698 10.410272
2006-07-18 07:56:12 51°17.754 2°43.257 24.3914 0.009236 0.047705 10.410272
2006-07-18 07:57:12 51°17.851 2°42.965 24.4248 0.009236 0.047712 10.443982
2006-07-18 07:58:13 51°17.939 2°42.662 24.412 0.009236 0.04772 10.410272
2006-07-18 07:59:12 51°18.032 2°42.373 24.4034 0.009236 0.047727 10.443982
2006-07-18 08:00:12 51°18.135 2°42.084 24.4468 0.009133 0.047284 10.410272
2006-07-18 08:01:13 51°18.24 2°41.793 24.4599 0.009133 0.047293 10.443982
2006-07-18 08:02:13 51°18.341 2°41.507 24.4745 0.009133 0.0473 10.410272
2006-07-18 08:03:12 51°18.44 2°41.224 24.4931 0.009133 0.047305 10.410272
2006-07-18 08:04:12 51°18.538 2°40.939 24.5064 0.009133 0.047312 10.410272
2006-07-18 08:05:12 51°18.647 2°40.662 24.5121 0.009133 0.047319 10.410272
2006-07-18 08:06:12 51°18.756 2°40.389 24.5152 0.009133 0.047325 10.443982
2006-07-18 08:07:13 51°18.87 2°40.105 24.4854 0.009133 0.047331 10.443982
2006-07-18 08:08:13 51°18.979 2°39.824 24.5302 0.009133 0.047339 10.410272
2006-07-18 08:09:13 51°19.085 2°39.534 24.5562 0.009133 0.047346 10.443982
2006-07-18 08:10:12 51°19.191 2°39.248 24.5863 0.009133 0.047353 10.443982
2006-07-18 08:11:12 51°19.3 2°38.955 24.5676 0.009133 0.047359 10.410272
2006-07-18 08:12:12 51°19.402 2°38.66 24.5881 0.009133 0.047365 10.410272
2006-07-18 08:13:12 51°19.517 2°38.371 24.6074 0.009133 0.047369 10.443982
2006-07-18 08:14:13 51°19.629 2°38.078 24.6381 0.009133 0.047373 10.443982
2006-07-18 08:15:13 51°19.742 2°37.796 24.626 0.009133 0.047377 10.410272
2006-07-18 08:16:12 51°19.857 2°37.524 24.6271 0.009133 0.047382 10.443982
2006-07-18 08:17:13 51°19.953 2°37.306 24.711 0.009133 0.047388 10.443982
2006-07-18 08:18:13 51°20.002 2°37.192 24.736 0.009133 0.047394 10.443982
2006-07-18 08:19:12 51°20.016 2°37.197 24.7441 0.009133 0.047397 10.410272
2006-07-18 08:20:12 51°20.03 2°37.212 24.7446 0.009133 0.0474 10.410272
2006-07-18 08:21:13 51°20.043 2°37.225 24.7459 0.009133 0.0474 10.410272
2006-07-18 08:22:13 51°20.052 2°37.231 24.7829 0.009133 0.047398 10.410272
2006-07-18 08:23:12 51°20.052 2°37.227 24.7885 0.009133 0.047398 10.410272
2006-07-18 08:24:13 51°20.048 2°37.225 24.7947 0.009133 0.047395 10.443982
2006-07-18 08:25:12 51°20.045 2°37.225 24.8109 0.009133 0.047392 10.443982
2006-07-18 08:26:13 51°20.044 2°37.225 24.802 0.009133 0.047388 10.443982
2006-07-18 08:27:13 51°20.043 2°37.226 24.8127 0.009133 0.047385 10.443982
2006-07-18 08:28:12 51°20.044 2°37.226 24.8312 0.009133 0.047383 10.410272
2006-07-18 08:29:12 51°20.045 2°37.227 24.8386 0.009133 0.04738 10.410272
2006-07-18 08:30:12 51°20.046 2°37.227 24.85 0.009133 0.047379 10.410272
2006-07-18 08:31:13 51°20.047 2°37.228 24.8461 0.009133 0.047378 10.443982
2006-07-18 08:32:13 51°20.047 2°37.228 24.8623 0.009133 0.047377 10.443982
2006-07-18 08:33:13 51°20.046 2°37.228 24.8913 0.009133 0.047377 10.443982
2006-07-18 08:34:13 51°20.044 2°37.228 24.9039 0.009133 0.047377 10.443982
2006-07-18 08:35:13 51°20.043 2°37.228 24.8932 0.009133 0.047377 10.443982
2006-07-18 08:36:12 51°20.041 2°37.228 24.9126 0.009133 0.047377 10.410272
2006-07-18 08:37:12 51°20.04 2°37.228 24.9259 0.009133 0.047376 10.443982
2006-07-18 08:38:13 51°20.04 2°37.228 24.9283 0.009133 0.047374 10.443982
2006-07-18 08:39:13 51°20.04 2°37.227 24.9454 0.009133 0.047373 10.410272
2006-07-18 08:40:13 51°20.04 2°37.226 24.9518 0.009133 0.04737 10.443982
2006-07-18 08:41:13 51°20.041 2°37.225 24.9643 0.009133 0.047368 10.443982
2006-07-18 08:42:13 51°20.042 2°37.225 24.9646 0.009133 0.047366 10.443982
2006-07-18 08:43:13 51°20.042 2°37.225 24.9721 0.009133 0.047364 10.477691
2006-07-18 08:44:13 51°20.043 2°37.226 24.9453 0.009133 0.047363 10.443982
2006-07-18 08:45:13 51°20.045 2°37.225 25.0048 0.009133 0.047363 10.443982
2006-07-18 08:46:13 51°20.046 2°37.225 24.9826 0.009133 0.047363 10.443982
2006-07-18 08:47:13 51°20.047 2°37.225 25.0192 0.009133 0.047364 10.443982
2006-07-18 08:48:13 51°20.047 2°37.225 25.0114 0.009133 0.047365 10.410272
2006-07-18 08:49:12 51°20.047 2°37.225 25.0446 0.009133 0.047366 10.410272
2006-07-18 08:50:13 51°20.046 2°37.225 25.0468 0.009133 0.047367 10.443982
2006-07-18 08:51:12 51°20.046 2°37.225 25.0632 0.009133 0.047368 10.443982
2006-07-18 08:52:12 51°20.045 2°37.225 25.0739 0.009133 0.047368 10.410272
2006-07-18 08:53:10 51°20.044 2°37.224 25.0897 0.009133 0.047369 10.443982
2006-07-18 08:54:13 51°20.043 2°37.224 25.1046 0.009133 0.04737 10.443982
2006-07-18 08:55:13 51°20.042 2°37.223 25.0926 0.009133 0.04737 10.443982
2006-07-18 08:56:13 51°20.042 2°37.222 25.1299 0.009133 0.04737 10.443982
2006-07-18 08:57:13 51°20.041 2°37.221 25.1135 0.009133 0.047368 10.443982
2006-07-18 08:58:13 51°20.042 2°37.221 25.1142 0.009133 0.047367 10.443982
2006-07-18 08:59:13 51°20.043 2°37.219 25.1532 0.009133 0.047366 10.443982
2006-07-18 09:00:12 51°20.044 2°37.218 25.1386 0.009133 0.047366 10.410272
2006-07-18 09:01:12 51°20.046 2°37.216 25.163 0.009133 0.047366 10.443982
2006-07-18 09:02:12 51°20.047 2°37.213 25.1781 0.009133 0.047367 10.410272
2006-07-18 09:03:13 51°20.048 2°37.211 25.1503 0.009133 0.047368 10.410272
2006-07-18 09:04:13 51°20.049 2°37.209 25.1814 0.009133 0.047369 10.410272
2006-07-18 09:05:13 51°20.049 2°37.208 25.1837 0.009133 0.04737 10.410272
2006-07-18 09:06:12 51°20.048 2°37.207 25.2172 0.009133 0.047372 10.410272
2006-07-18 09:07:12 51°20.048 2°37.207 25.2149 0.009133 0.047373 10.376563
2006-07-18 09:08:13 51°20.047 2°37.208 25.2181 0.009133 0.047375 10.410272
2006-07-18 09:09:12 51°20.046 2°37.21 25.237 0.009133 0.047377 10.410272
2006-07-18 09:10:12 51°20.046 2°37.212 25.2238 0.009133 0.047379 10.410272
2006-07-18 09:11:13 51°20.045 2°37.213 25.2433 0.009133 0.047381 10.443982
2006-07-18 09:12:12 51°20.045 2°37.212 25.2357 0.009133 0.047383 10.410272
2006-07-18 09:13:12 51°20.044 2°37.209 25.2543 0.009133 0.047385 10.410272
2006-07-18 09:14:13 51°20.045 2°37.205 25.2681 0.009133 0.047387 10.410272
2006-07-18 09:15:13 51°20.045 2°37.201 25.2768 0.009133 0.047389 10.410272
2006-07-18 09:16:13 51°20.044 2°37.198 25.2829 0.009133 0.047392 10.443982
2006-07-18 09:17:12 51°20.043 2°37.195 25.2855 0.009133 0.047393 10.410272
2006-07-18 09:18:13 51°20.042 2°37.193 25.3051 0.009133 0.047395 10.410272
2006-07-18 09:19:13 51°20.041 2°37.192 25.2775 0.009133 0.047396 10.410272
2006-07-18 09:20:13 51°20.04 2°37.192 25.318 0.009133 0.047398 10.443982
2006-07-18 09:21:13 51°20.039 2°37.192 25.3412 0.009133 0.0474 10.410272
2006-07-18 09:22:13 51°20.038 2°37.193 25.3416 0.009133 0.047401 10.410272
2006-07-18 09:23:12 51°20.037 2°37.193 25.355 0.009133 0.047402 10.410272
2006-07-18 09:24:13 51°20.037 2°37.194 25.341 0.009133 0.047403 10.443982
2006-07-18 09:25:13 51°20.036 2°37.193 25.3679 0.009133 0.047406 10.410272
2006-07-18 09:26:13 51°20.034 2°37.191 25.3777 0.009133 0.047408 10.410272
2006-07-18 09:27:12 51°20.033 2°37.19 25.3876 0.009133 0.04741 10.410272
2006-07-18 09:28:13 51°20.032 2°37.188 25.3838 0.009133 0.047411 10.443982
2006-07-18 09:29:13 51°20.031 2°37.187 25.3813 0.009133 0.047412 10.410272
2006-07-18 09:30:13 51°20.029 2°37.186 25.4052 0.009133 0.047413 10.410272
2006-07-18 09:31:13 51°20.028 2°37.185 25.4062 0.009133 0.047414 10.443982
2006-07-18 09:32:13 51°20.026 2°37.184 25.4315 0.009133 0.047415 10.410272
2006-07-18 09:33:13 51°20.026 2°37.184 25.4075 0.009133 0.047416 10.410272
2006-07-18 09:34:13 51°20.025 2°37.184 25.4438 0.009133 0.047417 10.410272
2006-07-18 09:35:13 51°20.025 2°37.184 25.4406 0.009133 0.047418 10.410272
2006-07-18 09:36:13 51°20.025 2°37.184 25.4612 0.009133 0.047418 10.410272
2006-07-18 09:37:13 51°20.026 2°37.183 25.4787 0.009133 0.047417 10.410272
2006-07-18 09:38:13 51°20.026 2°37.182 25.4566 0.009133 0.047415 10.410272
2006-07-18 09:39:13 51°20.027 2°37.182 25.4773 0.009133 0.047414 10.443982
2006-07-18 09:40:10 51°20.027 2°37.182 25.4877 0.009133 0.047412 10.410272
2006-07-18 09:41:12 51°20.028 2°37.182 25.4933 0.009133 0.04741 10.410272
2006-07-18 09:42:13 51°20.027 2°37.182 25.5133 0.009133 0.047408 10.410272
2006-07-18 09:43:13 51°20.028 2°37.182 25.5084 0.009133 0.047407 10.443982
2006-07-18 09:44:13 51°20.028 2°37.182 25.5302 0.009133 0.047405 10.443982
2006-07-18 09:45:13 51°20.028 2°37.181 25.5206 0.009133 0.047403 10.443982
2006-07-18 09:46:13 51°20.028 2°37.18 25.5217 0.009133 0.047402 10.410272
2006-07-18 09:47:13 51°20.029 2°37.18 25.5524 0.009133 0.0474 10.443982
2006-07-18 09:48:13 51°20.029 2°37.18 25.5511 0.009133 0.047398 10.443982
2006-07-18 09:49:13 51°20.03 2°37.18 25.5496 0.009133 0.047397 10.410272
2006-07-18 09:50:13 51°20.031 2°37.179 25.5693 0.009133 0.047394 10.410272
2006-07-18 09:51:13 51°20.032 2°37.18 25.5733 0.009133 0.047392 10.410272
2006-07-18 09:52:13 51°20.032 2°37.18 25.5906 0.009133 0.04739 10.443982
2006-07-18 09:53:13 51°20.032 2°37.18 25.5938 0.009133 0.047388 10.443982
2006-07-18 09:54:13 51°20.032 2°37.179 25.594 0.009133 0.047386 10.410272
2006-07-18 09:55:13 51°20.032 2°37.177 25.6115 0.009133 0.047384 10.410272
2006-07-18 09:56:13 51°20.032 2°37.177 25.6461 0.009133 0.047382 10.443982
2006-07-18 09:57:12 51°20.032 2°37.176 25.6299 0.009133 0.047381 10.443982
2006-07-18 09:58:13 51°20.032 2°37.176 25.6623 0.009133 0.04738 10.443982
2006-07-18 09:59:13 51°20.032 2°37.177 25.6515 0.009133 0.047378 10.410272
2006-07-18 10:00:12 51°20.032 2°37.178 25.6435 0.009133 0.047377 10.443982
2006-07-18 10:01:12 51°20.032 2°37.178 25.6629 0.009133 0.047375 10.443982
2006-07-18 10:02:13 51°20.032 2°37.177 25.6659 0.009133 0.047374 10.443982
2006-07-18 10:03:13 51°20.033 2°37.177 25.6661 0.009133 0.047373 10.410272
2006-07-18 10:04:12 51°20.033 2°37.177 25.699 0.009133 0.047372 10.443982
2006-07-18 10:05:13 51°20.033 2°37.176 25.7189 0.009133 0.047371 10.410272
2006-07-18 10:06:12 51°20.032 2°37.176 25.7249 0.009133 0.04737 10.410272
2006-07-18 10:07:12 51°20.031 2°37.177 25.7255 0.009133 0.047368 10.410272
2006-07-18 10:08:13 51°20.031 2°37.177 25.7366 0.009133 0.047366 10.443982
2006-07-18 10:09:13 51°20.03 2°37.177 25.4936 0.009133 0.047354 10.410272
2006-07-18 10:10:13 51°20.029 2°37.177 25.5545 0.009133 0.047358 10.443982
2006-07-18 10:11:13 51°20.03 2°37.181 25.5648 0.009133 0.047355 10.410272
2006-07-18 10:12:12 51°20.03 2°37.182 25.58 0.009133 0.047351 10.443982
2006-07-18 10:13:12 51°20.027 2°37.177 25.5893 0.009133 0.047346 10.410272
2006-07-18 10:14:13 51°20.023 2°37.167 25.6039 0.009133 0.047341 10.410272
2006-07-18 10:15:12 51°20.017 2°37.157 25.614 0.009133 0.047335 10.410272
2006-07-18 10:16:12 51°20.013 2°37.146 25.6317 0.009133 0.047331 10.443982
2006-07-18 10:17:13 51°20.008 2°37.136 25.6472 0.009133 0.047326 10.443982
2006-07-18 10:18:13 51°19.992 2°37.204 25.6239 0.009133 0.047321 10.410272
2006-07-18 10:19:13 51°19.925 2°37.344 25.6229 0.009133 0.047316 10.410272
2006-07-18 10:20:12 51°19.783 2°37.463 25.6235 0.009133 0.047312 10.410272
2006-07-18 10:21:13 51°19.591 2°37.562 25.6567 0.009133 0.047307 10.376563
2006-07-18 10:22:12 51°19.401 2°37.66 25.6808 0.009133 0.047308 10.410272
2006-07-18 10:23:13 51°19.206 2°37.768 25.7109 0.009133 0.047307 10.410272
2006-07-18 10:24:13 51°19.012 2°37.87 25.7579 0.009133 0.047305 10.410272
2006-07-18 10:25:13 51°18.818 2°37.974 25.7773 0.009133 0.047305 10.410272
2006-07-18 10:26:13 51°18.626 2°38.087 25.7973 0.009133 0.047303 10.410272
2006-07-18 10:27:13 51°18.431 2°38.193 25.8258 0.009133 0.047304 10.376563
2006-07-18 10:28:13 51°18.237 2°38.304 25.8418 0.009133 0.047303 10.410272
2006-07-18 10:29:13 51°18.045 2°38.401 25.8664 0.009133 0.047303 10.410272
2006-07-18 10:30:13 51°17.858 2°38.505 25.8934 0.009133 0.047303 10.410272
2006-07-18 10:31:12 51°17.668 2°38.591 25.9135 0.009133 0.047303 10.410272
2006-07-18 10:32:13 51°17.47 2°38.682 25.9404 0.009133 0.047302 10.410272
2006-07-18 10:33:13 51°17.275 2°38.774 25.9621 0.009133 0.047302 10.410272
2006-07-18 10:34:13 51°17.082 2°38.865 25.9883 0.009133 0.047301 10.410272
2006-07-18 10:35:12 51°16.9 2°38.95 26.0129 0.009133 0.047301 10.410272
2006-07-18 10:36:12 51°16.708 2°39.028 26.0388 0.009133 0.0473 10.410272
2006-07-18 10:37:13 51°16.512 2°39.119 26.0667 0.009133 0.047299 10.376563
2006-07-18 10:38:13 51°16.321 2°39.236 26.0852 0.009133 0.047298 10.410272
2006-07-18 10:39:13 51°16.123 2°39.339 26.1138 0.009133 0.047298 10.410272
2006-07-18 10:40:12 51°15.925 2°39.421 26.1407 0.009133 0.047297 10.410272
2006-07-18 10:41:12 51°15.724 2°39.489 26.1609 0.009133 0.047296 10.410272
2006-07-18 10:42:13 51°15.516 2°39.532 26.1888 0.009133 0.047293 10.376563
2006-07-18 10:43:12 51°15.313 2°39.571 26.2133 0.009133 0.047292 10.376563
2006-07-18 10:44:13 51°15.101 2°39.555 26.2433 0.009133 0.04729 10.410272
2006-07-18 10:45:13 51°14.891 2°39.536 26.2705 0.009133 0.047287 10.376563
2006-07-18 10:46:13 51°14.682 2°39.525 26.2927 0.009133 0.047284 10.410272
2006-07-18 10:47:12 51°14.476 2°39.504 26.1068 0.009133 0.047253 10.376563
2006-07-18 10:48:13 51°14.264 2°39.484 26.1683 0.009133 0.047277 10.376563
2006-07-18 10:49:10 51°14.066 2°39.463 26.1979 0.009133 0.047274 10.376563
2006-07-18 10:50:12 51°13.861 2°39.52 26.1908 0.009133 0.047269 10.410272
2006-07-18 10:51:12 51°13.676 2°39.635 26.2229 0.009133 0.047266 10.376563
2006-07-18 10:52:13 51°13.49 2°39.761 26.2095 0.009133 0.047263 10.410272
2006-07-18 10:53:12 51°13.335 2°39.936 26.2679 0.009133 0.047261 10.410272
2006-07-18 10:54:13 51°13.169 2°40.111 26.2921 0.009133 0.047259 10.376563
2006-07-18 10:55:13 51°13.041 2°40.322 26.304 0.009133 0.047261 10.376563
2006-07-18 10:56:13 51°13.029 2°40.605 26.293 0.009133 0.04726 10.376563
2006-07-18 10:57:13 51°13.079 2°40.883 26.33 0.009133 0.04726 10.410272
2006-07-18 10:58:13 51°13.116 2°41.167 26.3447 0.009133 0.04726 10.376563
2006-07-18 10:59:13 51°13.155 2°41.452 26.339 0.009133 0.04726 10.410272
2006-07-18 11:00:13 51°13.206 2°41.733 26.3748 0.009133 0.047259 10.376563
2006-07-18 11:01:13 51°13.241 2°42.018 26.3844 0.009133 0.047259 10.410272
2006-07-18 11:02:13 51°13.289 2°42.301 26.406 0.009133 0.047259 10.376563
2006-07-18 11:03:12 51°13.323 2°42.584 26.3968 0.009133 0.047259 10.376563
2006-07-18 11:04:13 51°13.377 2°42.869 26.4236 0.009133 0.04726 10.410272
2006-07-18 11:05:13 51°13.412 2°43.154 26.4295 0.009133 0.047258 10.410272
2006-07-18 11:06:13 51°13.462 2°43.435 26.4399 0.009133 0.047258 10.376563
2006-07-18 11:07:13 51°13.517 2°43.71 26.4551 0.009133 0.047258 10.410272
2006-07-18 11:08:12 51°13.569 2°43.981 26.4695 0.009133 0.047258 10.410272
2006-07-18 11:09:12 51°13.631 2°44.251 26.4888 0.009133 0.047257 10.376563
2006-07-18 11:10:13 51°13.698 2°44.52 26.4868 0.009133 0.047257 10.376563
2006-07-18 11:11:13 51°13.778 2°44.773 26.5049 0.009133 0.047257 10.410272
2006-07-18 11:12:13 51°13.843 2°45.037 26.5157 0.009133 0.047257 10.376563
2006-07-18 11:13:13 51°13.922 2°45.291 26.5298 0.009133 0.047257 10.376563
2006-07-18 11:14:13 51°14.002 2°45.546 26.5414 0.009133 0.047257 10.376563
2006-07-18 11:15:13 51°14.066 2°45.814 26.543 0.009133 0.047256 10.376563
2006-07-18 11:16:13 51°14.131 2°46.082 26.5656 0.009133 0.047254 10.376563
2006-07-18 11:17:13 51°14.188 2°46.354 26.5731 0.009133 0.047253 10.410272
2006-07-18 11:18:13 51°14.237 2°46.63 26.5798 0.009133 0.047252 10.410272
2006-07-18 11:19:13 51°14.287 2°46.904 26.5923 0.009133 0.047251 10.376563
2006-07-18 11:20:13 51°14.313 2°47.185 26.5976 0.009133 0.04725 10.376563
2006-07-18 11:21:13 51°14.358 2°47.46 26.6102 0.009133 0.04725 10.376563
2006-07-18 11:22:12 51°14.378 2°47.74 26.6155 0.009133 0.047249 10.410272
2006-07-18 11:23:13 51°14.421 2°48.021 26.6311 0.009133 0.047249 10.376563
2006-07-18 11:24:10 51°14.445 2°48.291 26.6373 0.009133 0.047248 10.376563
2006-07-18 11:25:13 51°14.479 2°48.586 26.6465 0.009133 0.047246 10.342853
2006-07-18 11:26:13 51°14.502 2°48.871 26.658 0.009133 0.047245 10.410272
2006-07-18 11:27:13 51°14.526 2°49.155 26.669 0.009133 0.047245 10.376563
2006-07-18 11:28:13 51°14.553 2°49.439 26.6801 0.009133 0.047243 10.410272
2006-07-18 11:29:13 51°14.587 2°49.719 26.6878 0.009133 0.047242 10.376563
2006-07-18 11:30:13 51°14.61 2°49.938 26.6931 0.009133 0.047242 10.410272
2006-07-18 11:31:13 51°14.615 2°50.134 26.7024 0.009133 0.047241 10.342853
2006-07-18 11:32:13 51°14.605 2°50.34 26.7079 0.009133 0.047241 10.410272
2006-07-18 11:33:13 51°14.599 2°50.55 26.7172 0.009133 0.047241 10.376563
2006-07-18 11:34:13 51°14.591 2°50.764 26.7272 0.009133 0.047241 10.410272
2006-07-18 11:35:13 51°14.583 2°50.984 26.7363 0.009133 0.047241 10.376563
2006-07-18 11:36:13 51°14.575 2°51.205 26.7477 0.009133 0.04724 10.376563
2006-07-18 11:37:13 51°14.567 2°51.426 26.7563 0.009133 0.047239 10.410272
2006-07-18 11:38:13 51°14.561 2°51.651 26.7656 0.009133 0.047239 10.410272
2006-07-18 11:39:12 51°14.571 2°51.881 26.7751 0.009133 0.047238 10.376563
2006-07-18 11:40:13 51°14.583 2°52.124 26.7825 0.009133 0.047238 10.376563
2006-07-18 11:41:13 51°14.595 2°52.364 26.789 0.009133 0.047237 10.410272
2006-07-18 11:42:13 51°14.607 2°52.606 26.8 0.009133 0.047236 10.376563
2006-07-18 11:43:14 51°14.617 2°52.869 26.787 0.009133 0.047235 10.376563
2006-07-18 11:44:13 51°14.581 2°53.154 26.8071 0.009133 0.047234 10.376563
2006-07-18 11:45:13 51°14.546 2°53.445 26.8136 0.009133 0.047233 10.376563
2006-07-18 11:46:13 51°14.511 2°53.74 26.8294 0.009133 0.047233 10.376563
2006-07-18 11:47:13 51°14.483 2°54.031 26.8253 0.009133 0.047232 10.376563
2006-07-18 11:48:13 51°14.448 2°54.321 26.8454 0.009133 0.047232 10.410272
2006-07-18 11:49:13 51°14.421 2°54.615 26.8529 0.009133 0.047231 10.410272
2006-07-18 11:50:13 51°14.387 2°54.912 26.8497 0.009133 0.04723 10.376563
2006-07-18 11:51:14 51°14.316 2°55.178 26.8592 0.009133 0.047229 10.410272
2006-07-18 11:52:14 51°14.214 2°55.333 26.8881 0.009133 0.047229 10.410272
2006-07-18 11:53:14 51°14.113 2°55.424 26.8977 0.009133 0.047228 10.376563
2006-07-18 11:54:14 51°14.02 2°55.494 26.912 0.009133 0.047227 10.376563
2006-07-18 11:55:14 51°13.926 2°55.566 26.9142 0.009133 0.047226 10.376563
2006-07-18 11:56:14 51°13.827 2°55.639 26.9336 0.009133 0.047224 10.376563
2006-07-18 11:57:14 51°13.742 2°55.731 26.9425 0.009133 0.047222 10.410272
2006-07-18 11:58:14 51°13.68 2°55.84 26.9465 0.009133 0.047219 10.376563
2006-07-18 11:59:14 51°13.636 2°55.947 26.9561 0.009133 0.047214 10.410272
2006-07-18 12:00:14 51°13.608 2°56.049 26.9751 0.009133 0.04721 10.376563
2006-07-18 12:01:14 51°13.602 2°56.097 26.992 0.009133 0.047205 10.376563
2006-07-18 12:02:14 51°13.601 2°56.1 27.0063 0.009133 0.047199 10.410272
2006-07-18 12:03:13 51°13.602 2°56.1 27.0132 0.009133 0.047192 10.376563